createdAt,value
2018-12-18T00:00:51.789Z,7.07
2018-12-18T00:03:57.919Z,7.23
2018-12-18T00:07:04.022Z,7.27
2018-12-18T00:10:10.251Z,6.80
2018-12-18T00:13:16.316Z,8.30
2018-12-18T00:16:22.496Z,7.17
2018-12-18T00:19:29.222Z,7.37
2018-12-18T00:22:35.319Z,7.33
2018-12-18T00:25:41.659Z,8.73
2018-12-18T00:28:47.741Z,7.17
2018-12-18T00:31:53.892Z,6.83
2018-12-18T00:35:00.114Z,7.10
2018-12-18T00:38:06.216Z,7.87
2018-12-18T00:41:12.320Z,6.93
2018-12-18T00:44:18.494Z,7.67
2018-12-18T00:47:24.675Z,7.17
2018-12-18T00:50:31.045Z,6.77
2018-12-18T00:53:37.120Z,6.23
2018-12-18T00:56:43.230Z,6.20
2018-12-18T00:59:49.321Z,6.47
2018-12-18T01:02:55.446Z,6.60
2018-12-18T01:06:02.222Z,7.07
2018-12-18T01:09:08.412Z,7.57
2018-12-18T01:12:14.535Z,7.00
2018-12-18T01:15:21.007Z,7.80
2018-12-18T01:18:27.388Z,6.43
2018-12-18T01:21:33.562Z,7.63
2018-12-18T01:24:39.691Z,7.03
2018-12-18T01:27:45.773Z,6.73
2018-12-18T01:30:51.844Z,7.93
2018-12-18T01:33:59.402Z,7.40
2018-12-18T01:37:07.500Z,7.37
2018-12-18T01:40:13.812Z,8.33
2018-12-18T01:43:19.857Z,7.40
2018-12-18T01:46:25.925Z,7.23
2018-12-18T01:49:32.030Z,6.90
2018-12-18T01:52:38.112Z,7.57
2018-12-18T01:55:44.320Z,6.83
2018-12-18T01:58:50.551Z,6.43
2018-12-18T02:01:56.697Z,6.00
2018-12-18T02:05:02.961Z,7.17
2018-12-18T02:08:09.061Z,7.20
2018-12-18T02:11:15.117Z,6.53
2018-12-18T02:14:21.168Z,6.23
2018-12-18T02:17:27.418Z,7.57
2018-12-18T02:20:33.519Z,6.73
2018-12-18T02:23:39.661Z,6.27
2018-12-18T02:26:46.055Z,6.90
2018-12-18T02:29:52.199Z,6.77
2018-12-18T02:32:58.302Z,6.90
2018-12-18T02:36:04.396Z,6.97
2018-12-18T02:39:10.485Z,7.87
2018-12-18T02:42:16.537Z,6.23
2018-12-18T02:45:22.611Z,6.87
2018-12-18T02:48:28.817Z,7.37
2018-12-18T02:51:34.895Z,7.00
2018-12-18T02:54:40.962Z,6.80
2018-12-18T02:57:47.025Z,7.43
2018-12-18T03:00:53.094Z,6.47
2018-12-18T03:03:59.182Z,7.47
2018-12-18T03:07:05.397Z,6.73
2018-12-18T03:10:11.492Z,7.07
2018-12-18T03:13:17.580Z,7.60
2018-12-18T03:16:24.731Z,7.77
2018-12-18T03:19:30.782Z,7.07
2018-12-18T03:22:36.802Z,6.77
2018-12-18T03:25:43.072Z,7.10
2018-12-18T03:28:49.081Z,6.93
2018-12-18T03:32:00.257Z,6.30
2018-12-18T03:35:06.500Z,7.17
2018-12-18T03:38:12.574Z,7.20
2018-12-18T03:41:18.831Z,6.70
2018-12-18T03:44:24.974Z,6.97
2018-12-18T03:47:31.066Z,7.33
2018-12-18T03:50:37.136Z,7.23
2018-12-18T03:53:43.261Z,7.87
2018-12-18T03:56:49.339Z,7.53
2018-12-18T03:59:55.419Z,6.83
2018-12-18T04:03:01.777Z,6.80
2018-12-18T04:06:07.924Z,6.50
2018-12-18T04:09:13.969Z,6.27
2018-12-18T04:12:23.674Z,6.33
2018-12-18T04:15:29.848Z,6.07
2018-12-18T04:18:35.928Z,6.67
2018-12-18T04:21:42.009Z,6.67
2018-12-18T04:24:48.066Z,6.57
2018-12-18T04:27:54.369Z,6.50
2018-12-18T04:31:00.447Z,7.00
2018-12-18T04:34:07.518Z,6.73
2018-12-18T04:37:13.641Z,6.70
2018-12-18T04:40:19.746Z,7.10
2018-12-18T04:43:25.863Z,7.53
2018-12-18T04:46:32.047Z,7.10
2018-12-18T04:49:38.866Z,6.57
2018-12-18T04:52:44.975Z,6.53
2018-12-18T04:55:51.101Z,6.50
2018-12-18T04:58:57.584Z,7.00
2018-12-18T05:02:03.689Z,6.00
2018-12-18T05:05:10.758Z,5.87
2018-12-18T05:08:16.811Z,6.73
2018-12-18T05:11:22.962Z,5.87
2018-12-18T05:14:29.245Z,6.10
2018-12-18T05:17:35.375Z,6.37
2018-12-18T05:20:41.446Z,5.90
2018-12-18T05:23:48.381Z,5.93
2018-12-18T05:26:54.457Z,5.97
2018-12-18T05:30:00.701Z,6.60
2018-12-18T05:33:06.795Z,5.60
2018-12-18T05:36:13.044Z,5.83
2018-12-18T05:39:19.096Z,6.50
2018-12-18T05:42:25.254Z,5.67
2018-12-18T05:45:31.833Z,5.47
2018-12-18T05:48:37.970Z,5.40
2018-12-18T05:51:44.490Z,6.00
2018-12-18T05:54:50.534Z,6.57
2018-12-18T05:57:56.669Z,4.77
2018-12-18T06:01:02.769Z,5.37
2018-12-18T06:04:08.795Z,5.33
2018-12-18T06:07:14.904Z,4.87
2018-12-18T06:10:21.869Z,5.30
2018-12-18T06:13:28.197Z,5.27
2018-12-18T06:16:34.346Z,5.80
2018-12-18T06:19:40.425Z,5.10
2018-12-18T06:22:46.478Z,5.37
2018-12-18T06:25:53.229Z,5.13
2018-12-18T06:28:59.271Z,5.50
2018-12-18T06:32:05.321Z,5.97
2018-12-18T06:35:11.639Z,5.07
2018-12-18T06:38:17.693Z,4.93
2018-12-18T06:41:23.758Z,4.97
2018-12-18T06:44:30.125Z,5.03
2018-12-18T06:47:36.221Z,5.20
2018-12-18T06:50:42.320Z,5.00
2018-12-18T06:53:48.458Z,4.83
2018-12-18T06:56:54.859Z,4.43
2018-12-18T07:00:00.915Z,5.50
2018-12-18T07:03:07.150Z,5.33
2018-12-18T07:06:13.249Z,5.27
2018-12-18T07:09:19.350Z,5.13
2018-12-18T07:12:25.431Z,5.77
2018-12-18T07:15:32.170Z,5.67
2018-12-18T07:18:38.279Z,5.37
2018-12-18T07:21:44.346Z,4.77
2018-12-18T07:24:50.455Z,4.30
2018-12-18T07:27:56.591Z,4.83
2018-12-18T07:31:02.977Z,5.17
2018-12-18T07:34:09.048Z,4.33
2018-12-18T07:37:15.111Z,4.80
2018-12-18T07:40:21.232Z,5.83
2018-12-18T07:43:27.623Z,4.90
2018-12-18T07:46:33.661Z,5.67
2018-12-18T07:49:39.771Z,4.73
2018-12-18T07:52:45.987Z,5.30
2018-12-18T07:55:52.151Z,6.90
2018-12-18T07:58:59.143Z,6.60
2018-12-18T08:02:05.331Z,5.17
2018-12-18T08:05:11.410Z,11.27
2018-12-18T08:08:17.753Z,6.30
2018-12-18T08:11:23.835Z,5.27
2018-12-18T08:14:29.903Z,4.70
2018-12-18T08:17:36.037Z,4.53
2018-12-18T08:20:42.839Z,5.10
2018-12-18T08:23:49.217Z,4.23
2018-12-18T08:26:55.375Z,4.73
2018-12-18T08:30:01.464Z,5.00
2018-12-18T08:33:07.554Z,5.10
2018-12-18T08:36:14.021Z,4.67
2018-12-18T08:39:20.106Z,4.00
2018-12-18T08:42:26.166Z,4.90
2018-12-18T08:45:32.251Z,4.80
2018-12-18T08:48:38.357Z,5.40
2018-12-18T08:51:44.457Z,3.90
2018-12-18T08:54:50.495Z,3.70
2018-12-18T08:57:56.730Z,4.47
2018-12-18T09:01:03.013Z,4.30
2018-12-18T09:04:09.153Z,4.53
2018-12-18T09:07:15.217Z,4.10
2018-12-18T09:10:22.040Z,4.00
2018-12-18T09:13:28.247Z,3.90
2018-12-18T09:16:39.547Z,4.00
2018-12-18T09:19:45.752Z,3.57
2018-12-18T09:22:52.381Z,3.50
2018-12-18T09:25:58.620Z,3.30
2018-12-18T09:29:04.736Z,3.50
2018-12-18T09:32:10.701Z,2.50
2018-12-18T09:35:16.705Z,2.50
2018-12-18T09:38:28.172Z,2.97
2018-12-18T09:41:40.845Z,3.17
2018-12-18T09:44:47.022Z,2.97
2018-12-18T09:47:53.074Z,2.73
2018-12-18T09:50:59.222Z,3.13
2018-12-18T09:54:05.393Z,4.20
2018-12-18T09:57:16.636Z,3.97
2018-12-18T10:00:22.918Z,4.23
2018-12-18T10:03:33.473Z,4.30
2018-12-18T10:06:37.975Z,5.10
2018-12-18T10:09:44.056Z,4.47
2018-12-18T10:12:55.571Z,3.33
2018-12-18T10:16:02.279Z,4.20
2018-12-18T10:19:08.346Z,2.93
2018-12-18T10:22:14.432Z,3.53
2018-12-18T10:25:20.636Z,3.90
2018-12-18T10:28:26.717Z,3.70
2018-12-18T10:31:33.628Z,4.33
2018-12-18T10:34:39.749Z,4.10
2018-12-18T10:37:46.281Z,4.10
2018-12-18T10:40:53.827Z,3.57
2018-12-18T10:44:00.170Z,3.53
2018-12-18T10:47:06.919Z,3.97
2018-12-18T10:50:13.664Z,5.47
2018-12-18T10:53:19.814Z,4.70
2018-12-18T10:56:25.981Z,5.50
2018-12-18T10:59:32.370Z,5.30
2018-12-18T11:02:39.072Z,6.23
2018-12-18T11:05:45.047Z,5.70
2018-12-18T11:08:51.523Z,5.93
2018-12-18T11:11:57.643Z,8.43
2018-12-18T11:15:04.110Z,6.63
2018-12-18T11:18:11.822Z,5.30
2018-12-18T11:21:17.948Z,5.50
2018-12-18T11:24:24.248Z,5.67
2018-12-18T11:27:30.459Z,5.93
2018-12-18T11:30:36.945Z,5.23
2018-12-18T11:33:43.482Z,5.53
2018-12-18T11:36:49.568Z,4.97
2018-12-18T11:39:55.693Z,5.07
2018-12-18T11:43:01.768Z,5.33
2018-12-18T11:46:07.982Z,5.67
2018-12-18T11:49:14.854Z,4.70
2018-12-18T11:52:21.185Z,4.80
2018-12-18T11:55:27.450Z,5.50
2018-12-18T11:58:33.630Z,4.70
2018-12-18T12:01:39.966Z,4.70
2018-12-18T12:04:46.468Z,4.27
2018-12-18T12:07:52.704Z,4.13
2018-12-18T12:10:58.780Z,5.07
2018-12-18T12:14:05.342Z,3.50
2018-12-18T12:17:11.537Z,4.13
2018-12-18T12:20:17.718Z,4.53
2018-12-18T12:23:23.945Z,4.90
2018-12-18T12:26:33.530Z,4.57
2018-12-18T12:29:39.685Z,4.27
2018-12-18T12:32:45.738Z,4.87
2018-12-18T12:35:52.390Z,3.87
2018-12-18T12:38:58.590Z,5.03
2018-12-18T12:42:04.759Z,4.00
2018-12-18T12:45:10.910Z,4.93
2018-12-18T12:48:18.484Z,4.27
2018-12-18T12:51:25.636Z,4.27
2018-12-18T12:54:31.924Z,4.47
2018-12-18T12:57:38.121Z,4.70
2018-12-18T13:00:44.300Z,4.40
2018-12-18T13:03:50.524Z,3.33
2018-12-18T13:06:57.544Z,5.13
2018-12-18T13:10:04.381Z,4.20
2018-12-18T13:13:10.539Z,3.80
2018-12-18T13:16:16.722Z,4.70
2018-12-18T13:19:22.890Z,4.10
2018-12-18T13:22:29.883Z,3.93
2018-12-18T13:25:35.995Z,4.60
2018-12-18T13:28:42.159Z,4.37
2018-12-18T13:31:48.695Z,5.00
2018-12-18T13:34:55.170Z,5.37
2018-12-18T13:38:01.616Z,5.30
2018-12-18T13:41:07.728Z,5.87
2018-12-18T13:44:13.893Z,7.30
2018-12-18T13:47:19.951Z,5.93
2018-12-18T13:50:26.760Z,5.60
2018-12-18T13:53:32.892Z,6.20
2018-12-18T13:56:39.782Z,6.57
2018-12-18T13:59:45.916Z,4.80
2018-12-18T14:02:52.155Z,5.30
2018-12-18T14:05:58.229Z,4.77
2018-12-18T14:09:08.499Z,4.90
2018-12-18T14:12:14.687Z,5.17
2018-12-18T14:15:22.397Z,6.13
2018-12-18T14:18:29.111Z,5.87
2018-12-18T14:21:35.321Z,5.73
2018-12-18T14:24:41.783Z,5.63
2018-12-18T14:27:47.876Z,7.50
2018-12-18T14:30:54.258Z,5.57
2018-12-18T14:34:00.366Z,5.77
2018-12-18T14:37:06.650Z,6.07
2018-12-18T14:40:13.695Z,8.17
2018-12-18T14:43:20.136Z,6.90
2018-12-18T14:46:26.268Z,7.13
2018-12-18T14:49:32.473Z,6.63
2018-12-18T14:52:38.561Z,6.73
2018-12-18T14:55:45.174Z,6.03
2018-12-18T14:58:51.238Z,6.83
2018-12-18T15:01:57.489Z,6.90
2018-12-18T15:05:03.953Z,6.50
2018-12-18T15:08:10.224Z,6.17
2018-12-18T15:11:17.012Z,5.93
2018-12-18T15:14:23.052Z,6.70
2018-12-18T15:17:29.505Z,6.33
2018-12-18T15:20:35.609Z,6.70
2018-12-18T15:23:41.726Z,6.87
2018-12-18T15:26:47.789Z,5.90
2018-12-18T15:29:54.218Z,5.47
2018-12-18T15:33:00.401Z,6.80
2018-12-18T15:36:06.918Z,6.43
2018-12-18T15:39:13.240Z,6.97
2018-12-18T15:42:19.354Z,8.37
2018-12-18T15:45:25.424Z,7.93
2018-12-18T15:48:31.670Z,10.00
2018-12-18T15:51:37.933Z,11.03
2018-12-18T15:54:44.110Z,8.73
2018-12-18T15:57:50.172Z,8.57
2018-12-18T16:00:56.742Z,8.20
2018-12-18T16:04:02.829Z,9.97
2018-12-18T16:07:08.951Z,10.63
2018-12-18T16:10:15.168Z,9.67
2018-12-18T16:13:21.253Z,10.23
2018-12-18T16:16:27.724Z,14.30
2018-12-18T16:19:34.158Z,25.67
2018-12-18T16:22:40.334Z,11.30
2018-12-18T16:25:46.610Z,11.73
2018-12-18T16:28:52.880Z,10.53
2018-12-18T16:31:59.321Z,10.73
2018-12-18T16:35:05.445Z,9.60
2018-12-18T16:38:11.517Z,8.73
2018-12-18T16:41:17.598Z,8.23
2018-12-18T16:44:23.806Z,14.30
2018-12-18T16:47:30.070Z,10.57
2018-12-18T16:50:36.244Z,12.50
2018-12-18T16:53:42.358Z,9.70
2018-12-18T16:56:48.827Z,16.80
2018-12-18T16:59:54.975Z,12.83
2018-12-18T17:03:01.047Z,15.53
2018-12-18T17:06:08.156Z,19.50
2018-12-18T17:09:14.201Z,12.77
2018-12-18T17:12:20.539Z,8.40
2018-12-18T17:15:26.658Z,10.87
2018-12-18T17:18:32.904Z,7.87
2018-12-18T17:21:40.048Z,8.90
2018-12-18T17:24:46.229Z,19.77
2018-12-18T17:27:52.264Z,11.50
2018-12-18T17:30:58.551Z,8.17
2018-12-18T17:34:04.676Z,11.80
2018-12-18T17:37:11.733Z,10.10
2018-12-18T17:40:17.814Z,13.80
2018-12-18T17:43:24.211Z,13.87
2018-12-18T17:46:30.269Z,9.97
2018-12-18T17:49:36.392Z,9.57
2018-12-18T17:52:42.847Z,10.10
2018-12-18T17:55:48.901Z,8.57
2018-12-18T17:58:54.989Z,9.77
2018-12-18T18:02:01.325Z,8.00
2018-12-18T18:05:08.567Z,5.97
2018-12-18T18:08:15.380Z,5.97
2018-12-18T18:11:21.639Z,5.63
2018-12-18T18:14:28.210Z,5.87
2018-12-18T18:17:34.627Z,7.63
2018-12-18T18:20:40.746Z,5.97
2018-12-18T18:23:46.895Z,6.28
2018-12-18T18:26:53.115Z,7.07
2018-12-18T18:29:59.325Z,5.58
2018-12-18T18:33:05.349Z,5.73
2018-12-18T18:36:11.895Z,6.12
2018-12-18T18:39:18.234Z,8.37
2018-12-18T18:42:24.445Z,7.62
2018-12-18T18:45:30.800Z,12.57
2018-12-18T18:48:37.096Z,14.60
2018-12-18T18:51:43.532Z,12.23
2018-12-18T18:54:49.872Z,12.33
2018-12-18T18:57:56.386Z,13.22
2018-12-18T19:01:03.024Z,10.98
2018-12-18T19:04:09.637Z,8.50
2018-12-18T19:07:15.929Z,24.02
2018-12-18T19:10:22.478Z,15.98
2018-12-18T19:13:28.859Z,11.38
2018-12-18T19:16:35.159Z,11.30
2018-12-18T19:19:41.454Z,16.48
2018-12-18T19:22:47.773Z,14.00
2018-12-18T19:25:54.020Z,11.73
2018-12-18T19:29:00.409Z,13.38
2018-12-18T19:32:06.657Z,11.00
2018-12-18T19:35:12.909Z,10.45
2018-12-18T19:38:19.260Z,9.20
2018-12-18T19:41:25.647Z,9.68
2018-12-18T19:44:32.199Z,11.48
2018-12-18T19:47:38.450Z,11.55
2018-12-18T19:50:44.595Z,9.68
2018-12-18T19:53:51.067Z,10.60
2018-12-18T19:56:57.303Z,11.28
2018-12-18T20:00:04.564Z,11.80
2018-12-18T20:03:13.669Z,9.48
2018-12-18T20:06:19.921Z,8.65
2018-12-18T20:09:26.223Z,8.25
2018-12-18T20:12:32.458Z,9.30
2018-12-18T20:15:38.760Z,17.12
2018-12-18T20:18:44.986Z,10.10
2018-12-18T20:21:51.188Z,10.38
2018-12-18T20:24:57.496Z,10.63
2018-12-18T20:28:03.700Z,8.93
2018-12-18T20:31:10.314Z,10.30
2018-12-18T20:34:16.669Z,14.93
2018-12-18T20:37:22.918Z,14.07
2018-12-18T20:40:29.272Z,13.20
2018-12-18T20:43:35.514Z,9.78
2018-12-18T20:46:42.730Z,10.03
2018-12-18T20:49:49.107Z,10.05
2018-12-18T20:52:55.358Z,13.00
2018-12-18T20:56:01.742Z,12.75
2018-12-18T20:59:07.966Z,7.87
2018-12-18T21:02:14.491Z,8.35
2018-12-18T21:05:20.723Z,8.70
2018-12-18T21:08:27.203Z,9.40
2018-12-18T21:11:33.421Z,8.38
2018-12-18T21:14:39.592Z,8.20
2018-12-18T21:17:46.488Z,8.73
2018-12-18T21:20:52.771Z,8.33
2018-12-18T21:23:59.036Z,8.40
2018-12-18T21:27:05.825Z,9.20
2018-12-18T21:30:12.122Z,15.10
2018-12-18T21:33:18.575Z,13.78
2018-12-18T21:36:24.749Z,10.90
2018-12-18T21:39:31.118Z,10.23
2018-12-18T21:42:37.463Z,7.10
2018-12-18T21:45:44.182Z,10.38
2018-12-18T21:48:51.639Z,14.13
2018-12-18T21:51:57.885Z,12.07
2018-12-18T21:55:04.281Z,12.60
2018-12-18T21:58:10.553Z,11.25
2018-12-18T22:01:17.062Z,8.88
2018-12-18T22:04:23.335Z,16.80
2018-12-18T22:07:29.527Z,15.40
2018-12-18T22:10:35.998Z,16.95
2018-12-18T22:13:42.462Z,13.80
2018-12-18T22:16:49.453Z,9.43
2018-12-18T22:19:55.724Z,11.88
2018-12-18T22:23:02.012Z,11.83
2018-12-18T22:26:08.392Z,13.48
2018-12-18T22:29:14.815Z,12.28
2018-12-18T22:32:21.526Z,9.98
2018-12-18T22:35:28.399Z,11.03
2018-12-18T22:38:34.696Z,8.18
2018-12-18T22:41:40.995Z,7.58
2018-12-18T22:44:47.412Z,8.13
2018-12-18T22:47:53.656Z,10.28
2018-12-18T22:50:59.888Z,7.75
2018-12-18T22:54:06.037Z,9.53
2018-12-18T22:57:12.301Z,8.53
2018-12-18T23:00:23.846Z,10.32
2018-12-18T23:03:30.454Z,8.85
2018-12-18T23:06:36.990Z,8.90
2018-12-18T23:09:43.183Z,7.75
2018-12-18T23:12:49.398Z,8.95
2018-12-18T23:15:55.817Z,7.87
2018-12-18T23:19:01.985Z,8.75
2018-12-18T23:22:08.341Z,8.78
2018-12-18T23:25:14.756Z,13.20
2018-12-18T23:28:21.540Z,7.75
2018-12-18T23:31:27.751Z,9.73
2018-12-18T23:34:34.081Z,8.35
2018-12-18T23:37:40.747Z,12.70
2018-12-18T23:40:47.178Z,9.95
2018-12-18T23:43:53.422Z,21.40
2018-12-18T23:46:59.589Z,16.80
2018-12-18T23:50:05.909Z,36.15
2018-12-18T23:53:12.103Z,22.22
2018-12-18T23:56:18.198Z,21.35
2018-12-18T23:59:24.579Z,13.60
